sensor_id;sensor_type;location;lat;lon;timestamp;pressure;altitude;pressure_sealevel;temperature;humidity
84936;BME280;75210;52.210;20.902;2024-01-27T00:00:50;100127.09;;;4.91;88.19
84936;BME280;75210;52.210;20.902;2024-01-27T00:01:51;100062.28;;;4.48;87.96
84936;BME280;75210;52.210;20.902;2024-01-27T00:02:51;100123.53;;;4.94;88.27
84936;BME280;75210;52.210;20.902;2024-01-27T00:03:52;100098.69;;;4.81;88.15
84936;BME280;75210;52.210;20.902;2024-01-27T00:04:52;100102.03;;;4.84;88.38
84936;BME280;75210;52.210;20.902;2024-01-27T00:05:53;100136.91;;;4.83;88.17
84936;BME280;75210;52.210;20.902;2024-01-27T00:06:53;100026.81;;;4.15;87.39
84936;BME280;75210;52.210;20.902;2024-01-27T00:07:53;100141.34;;;4.81;88.24
84936;BME280;75210;52.210;20.902;2024-01-27T00:08:54;100141.41;;;4.80;87.22
84936;BME280;75210;52.210;20.902;2024-01-27T00:09:54;100102.97;;;4.57;87.61
84936;BME280;75210;52.210;20.902;2024-01-27T00:10:56;100142.25;;;4.80;87.59
84936;BME280;75210;52.210;20.902;2024-01-27T00:11:56;100143.13;;;4.81;86.79
84936;BME280;75210;52.210;20.902;2024-01-27T00:12:57;100126.97;;;4.68;86.81
84936;BME280;75210;52.210;20.902;2024-01-27T00:13:57;100124.50;;;4.63;86.45
84936;BME280;75210;52.210;20.902;2024-01-27T00:14:57;100049.78;;;4.04;87.07
84936;BME280;75210;52.210;20.902;2024-01-27T00:15:58;100028.06;;;4.03;86.50
84936;BME280;75210;52.210;20.902;2024-01-27T00:16:58;100160.81;;;4.71;86.71
84936;BME280;75210;52.210;20.902;2024-01-27T00:17:59;100159.00;;;4.73;86.02
84936;BME280;75210;52.210;20.902;2024-01-27T00:18:59;100153.84;;;4.72;86.52
84936;BME280;75210;52.210;20.902;2024-01-27T00:19:59;100075.50;;;4.16;86.36
84936;BME280;75210;52.210;20.902;2024-01-27T00:21:00;100166.94;;;4.70;86.87
84936;BME280;75210;52.210;20.902;2024-01-27T00:22:00;100172.97;;;4.72;86.96
84936;BME280;75210;52.210;20.902;2024-01-27T00:23:01;100117.44;;;4.39;86.99
84936;BME280;75210;52.210;20.902;2024-01-27T00:24:01;100143.22;;;4.50;87.05
84936;BME280;75210;52.210;20.902;2024-01-27T00:25:01;100170.63;;;4.64;87.48
84936;BME280;75210;52.210;20.902;2024-01-27T00:26:04;100178.31;;;4.69;87.15
84936;BME280;75210;52.210;20.902;2024-01-27T00:27:04;100178.31;;;4.69;86.96
84936;BME280;75210;52.210;20.902;2024-01-27T00:28:05;100175.84;;;4.64;87.36
84936;BME280;75210;52.210;20.902;2024-01-27T00:29:06;100188.03;;;4.64;87.70
84936;BME280;75210;52.210;20.902;2024-01-27T00:30:07;100191.56;;;4.63;87.54
84936;BME280;75210;52.210;20.902;2024-01-27T00:31:07;100093.16;;;4.08;88.26
84936;BME280;75210;52.210;20.902;2024-01-27T00:32:08;100031.69;;;3.70;87.38
84936;BME280;75210;52.210;20.902;2024-01-27T00:33:08;100056.50;;;3.83;87.09
84936;BME280;75210;52.210;20.902;2024-01-27T00:34:09;100191.50;;;4.64;86.66
84936;BME280;75210;52.210;20.902;2024-01-27T00:35:09;100192.31;;;4.66;85.88
84936;BME280;75210;52.210;20.902;2024-01-27T00:36:09;100200.13;;;4.68;86.67
84936;BME280;75210;52.210;20.902;2024-01-27T00:37:10;100196.59;;;4.69;86.63
84936;BME280;75210;52.210;20.902;2024-01-27T00:38:10;100205.31;;;4.69;86.44
84936;BME280;75210;52.210;20.902;2024-01-27T00:39:11;100205.22;;;4.71;85.67
84936;BME280;75210;52.210;20.902;2024-01-27T00:40:11;100194.03;;;4.67;85.25
84936;BME280;75210;52.210;20.902;2024-01-27T00:41:17;100208.94;;;4.64;86.21
84936;BME280;75210;52.210;20.902;2024-01-27T00:42:17;100200.38;;;4.59;85.63
84936;BME280;75210;52.210;20.902;2024-01-27T00:43:18;100211.00;;;4.54;86.70
84936;BME280;75210;52.210;20.902;2024-01-27T00:44:18;100183.84;;;4.30;86.50
84936;BME280;75210;52.210;20.902;2024-01-27T00:45:19;100212.91;;;4.48;86.85
84936;BME280;75210;52.210;20.902;2024-01-27T00:46:19;100219.75;;;4.52;86.26
84936;BME280;75210;52.210;20.902;2024-01-27T00:47:20;100209.31;;;4.52;86.05
84936;BME280;75210;52.210;20.902;2024-01-27T00:48:20;100217.97;;;4.54;86.02
84936;BME280;75210;52.210;20.902;2024-01-27T00:49:20;100217.97;;;4.54;85.71
84936;BME280;75210;52.210;20.902;2024-01-27T00:50:21;100229.22;;;4.56;86.45
84936;BME280;75210;52.210;20.902;2024-01-27T00:51:21;100220.50;;;4.57;85.60
84936;BME280;75210;52.210;20.902;2024-01-27T00:52:22;100225.72;;;4.57;86.02
84936;BME280;75210;52.210;20.902;2024-01-27T00:53:22;100223.16;;;4.55;86.91
84936;BME280;75210;52.210;20.902;2024-01-27T00:54:23;100227.41;;;4.58;85.81
84936;BME280;75210;52.210;20.902;2024-01-27T00:55:23;100226.63;;;4.56;85.86
84936;BME280;75210;52.210;20.902;2024-01-27T00:56:25;100236.16;;;4.57;85.50
84936;BME280;75210;52.210;20.902;2024-01-27T00:57:29;100220.53;;;4.55;86.01
84936;BME280;75210;52.210;20.902;2024-01-27T00:58:29;100230.97;;;4.55;85.57
84936;BME280;75210;52.210;20.902;2024-01-27T00:59:29;100237.06;;;4.56;85.79
84936;BME280;75210;52.210;20.902;2024-01-27T01:00:30;100154.22;;;4.02;85.98
84936;BME280;75210;52.210;20.902;2024-01-27T01:01:30;100237.16;;;4.53;86.10
84936;BME280;75210;52.210;20.902;2024-01-27T01:02:31;100226.16;;;4.42;85.81
84936;BME280;75210;52.210;20.902;2024-01-27T01:03:31;100247.59;;;4.53;85.50
84936;BME280;75210;52.210;20.902;2024-01-27T01:04:31;100059.44;;;3.41;85.43
84936;BME280;75210;52.210;20.902;2024-01-27T01:05:32;100237.16;;;4.53;84.91
84936;BME280;75210;52.210;20.902;2024-01-27T01:06:32;100250.16;;;4.54;85.17
84936;BME280;75210;52.210;20.902;2024-01-27T01:07:33;100250.16;;;4.54;84.43
84936;BME280;75210;52.210;20.902;2024-01-27T01:08:33;100184.38;;;4.12;86.08
84936;BME280;75210;52.210;20.902;2024-01-27T01:09:34;100231.41;;;4.40;84.90
84936;BME280;75210;52.210;20.902;2024-01-27T01:10:34;100254.63;;;4.51;84.04
84936;BME280;75210;52.210;20.902;2024-01-27T01:11:36;100241.59;;;4.49;84.63
84936;BME280;75210;52.210;20.902;2024-01-27T01:12:36;100117.69;;;3.71;83.32
84936;BME280;75210;52.210;20.902;2024-01-27T01:13:36;100252.00;;;4.51;84.19
84936;BME280;75210;52.210;20.902;2024-01-27T01:14:37;100248.50;;;4.52;84.19
84936;BME280;75210;52.210;20.902;2024-01-27T01:15:37;100249.34;;;4.52;83.92
84936;BME280;75210;52.210;20.902;2024-01-27T01:16:38;100246.81;;;4.49;83.55
84936;BME280;75210;52.210;20.902;2024-01-27T01:17:38;100251.19;;;4.49;82.59
84936;BME280;75210;52.210;20.902;2024-01-27T01:18:38;100257.25;;;4.49;83.31
84936;BME280;75210;52.210;20.902;2024-01-27T01:19:40;100263.44;;;4.47;83.90
84936;BME280;75210;52.210;20.902;2024-01-27T01:20:41;100252.22;;;4.43;83.77
84936;BME280;75210;52.210;20.902;2024-01-27T01:21:41;100254.81;;;4.45;83.57
84936;BME280;75210;52.210;20.902;2024-01-27T01:22:44;100253.31;;;4.34;83.73
84936;BME280;75210;52.210;20.902;2024-01-27T01:23:45;100267.78;;;4.46;84.28
84936;BME280;75210;52.210;20.902;2024-01-27T01:24:45;100259.91;;;4.48;83.67
84936;BME280;75210;52.210;20.902;2024-01-27T01:25:46;100238.56;;;4.33;83.76
84936;BME280;75210;52.210;20.902;2024-01-27T01:26:49;100239.56;;;4.29;83.48
84936;BME280;75210;52.210;20.902;2024-01-27T01:27:49;100255.53;;;4.48;82.10
84936;BME280;75210;52.210;20.902;2024-01-27T01:28:49;100267.78;;;4.46;83.17
84936;BME280;75210;52.210;20.902;2024-01-27T01:29:50;100251.72;;;4.30;83.55
84936;BME280;75210;52.210;20.902;2024-01-27T01:30:50;100260.09;;;4.42;83.29
84936;BME280;75210;52.210;20.902;2024-01-27T01:31:51;100194.56;;;3.90;83.44
84936;BME280;75210;52.210;20.902;2024-01-27T01:32:51;100239.88;;;4.19;83.73
84936;BME280;75210;52.210;20.902;2024-01-27T01:33:52;100268.03;;;4.39;83.54
84936;BME280;75210;52.210;20.902;2024-01-27T01:34:52;100273.25;;;4.39;82.77
84936;BME280;75210;52.210;20.902;2024-01-27T01:35:53;100275.03;;;4.37;83.58
84936;BME280;75210;52.210;20.902;2024-01-27T01:36:53;100278.50;;;4.37;84.16
84936;BME280;75210;52.210;20.902;2024-01-27T01:37:53;100274.13;;;4.38;83.50
84936;BME280;75210;52.210;20.902;2024-01-27T01:38:54;100211.06;;;3.91;83.66
84936;BME280;75210;52.210;20.902;2024-01-27T01:39:54;100269.44;;;4.19;83.97
84936;BME280;75210;52.210;20.902;2024-01-27T01:40:55;100280.28;;;4.35;84.51
84936;BME280;75210;52.210;20.902;2024-01-27T01:41:57;100288.94;;;4.37;84.34
84936;BME280;75210;52.210;20.902;2024-01-27T01:42:58;100137.31;;;3.53;84.25
84936;BME280;75210;52.210;20.902;2024-01-27T01:43:59;100279.38;;;4.38;83.76
84936;BME280;75210;52.210;20.902;2024-01-27T01:44:59;100284.53;;;4.39;83.93
84936;BME280;75210;52.210;20.902;2024-01-27T01:46:00;100255.47;;;4.20;84.61
84936;BME280;75210;52.210;20.902;2024-01-27T01:47:01;100283.66;;;4.40;84.50
84936;BME280;75210;52.210;20.902;2024-01-27T01:48:01;100276.94;;;4.31;84.48
84936;BME280;75210;52.210;20.902;2024-01-27T01:49:02;100247.59;;;4.22;84.12
84936;BME280;75210;52.210;20.902;2024-01-27T01:50:04;100279.38;;;4.38;83.71
84936;BME280;75210;52.210;20.902;2024-01-27T01:51:05;100259.84;;;4.20;84.58
84936;BME280;75210;52.210;20.902;2024-01-27T01:52:06;100289.72;;;4.41;84.36
84936;BME280;75210;52.210;20.902;2024-01-27T01:53:07;100211.06;;;3.91;84.02
84936;BME280;75210;52.210;20.902;2024-01-27T01:54:07;100269.22;;;4.27;84.25
84936;BME280;75210;52.210;20.902;2024-01-27T01:55:08;100280.13;;;4.41;84.55
84936;BME280;75210;52.210;20.902;2024-01-27T01:56:08;100292.06;;;4.50;84.70
84936;BME280;75210;52.210;20.902;2024-01-27T01:57:10;100248.09;;;4.34;84.25
84936;BME280;75210;52.210;20.902;2024-01-27T01:58:11;100289.41;;;4.51;84.38
84936;BME280;75210;52.210;20.902;2024-01-27T01:59:12;100283.31;;;4.52;84.43
84936;BME280;75210;52.210;20.902;2024-01-27T02:00:13;100289.38;;;4.53;84.10
84936;BME280;75210;52.210;20.902;2024-01-27T02:01:14;100276.66;;;4.41;84.28
84936;BME280;75210;52.210;20.902;2024-01-27T02:02:14;100285.91;;;4.52;84.06
84936;BME280;75210;52.210;20.902;2024-01-27T02:03:14;100295.38;;;4.56;84.08
84936;BME280;75210;52.210;20.902;2024-01-27T02:04:15;100291.00;;;4.57;83.06
84936;BME280;75210;52.210;20.902;2024-01-27T02:05:15;100295.47;;;4.53;83.62
84936;BME280;75210;52.210;20.902;2024-01-27T02:06:16;100298.88;;;4.55;83.70
84936;BME280;75210;52.210;20.902;2024-01-27T02:07:16;100114.25;;;3.38;84.09
84936;BME280;75210;52.210;20.902;2024-01-27T02:08:16;100285.41;;;4.40;83.61
84936;BME280;75210;52.210;20.902;2024-01-27T02:09:17;100301.50;;;4.55;83.69
84936;BME280;75210;52.210;20.902;2024-01-27T02:10:18;100236.28;;;4.21;83.56
84936;BME280;75210;52.210;20.902;2024-01-27T02:11:19;100213.25;;;4.06;83.35
84936;BME280;75210;52.210;20.902;2024-01-27T02:12:21;100118.50;;;3.42;82.97
84936;BME280;75210;52.210;20.902;2024-01-27T02:13:21;100300.66;;;4.55;83.47
84936;BME280;75210;52.210;20.902;2024-01-27T02:14:22;100304.06;;;4.57;83.17
84936;BME280;75210;52.210;20.902;2024-01-27T02:15:22;100297.13;;;4.56;83.40
84936;BME280;75210;52.210;20.902;2024-01-27T02:16:23;100301.50;;;4.55;82.64
84936;BME280;75210;52.210;20.902;2024-01-27T02:17:23;100291.25;;;4.48;83.17
84936;BME280;75210;52.210;20.902;2024-01-27T02:18:23;100305.13;;;4.50;83.41
84936;BME280;75210;52.210;20.902;2024-01-27T02:19:24;100300.81;;;4.49;83.91
84936;BME280;75210;52.210;20.902;2024-01-27T02:20:24;100164.59;;;3.73;82.91
84936;BME280;75210;52.210;20.902;2024-01-27T02:21:25;100233.91;;;4.14;82.84
84936;BME280;75210;52.210;20.902;2024-01-27T02:22:25;100308.47;;;4.55;82.80
84936;BME280;75210;52.210;20.902;2024-01-27T02:23:26;100302.44;;;4.53;82.98
84936;BME280;75210;52.210;20.902;2024-01-27T02:24:28;100305.94;;;4.52;82.75
84936;BME280;75210;52.210;20.902;2024-01-27T02:25:28;100308.56;;;4.52;83.19
84936;BME280;75210;52.210;20.902;2024-01-27T02:26:31;100296.41;;;4.51;83.31
84936;BME280;75210;52.210;20.902;2024-01-27T02:27:32;100302.38;;;4.56;83.44
84936;BME280;75210;52.210;20.902;2024-01-27T02:28:32;100313.72;;;4.55;82.97
84936;BME280;75210;52.210;20.902;2024-01-27T02:29:33;100294.88;;;4.44;83.01
84936;BME280;75210;52.210;20.902;2024-01-27T02:30:33;100303.34;;;4.52;83.53
84936;BME280;75210;52.210;20.902;2024-01-27T02:31:34;100309.38;;;4.54;83.67
84936;BME280;75210;52.210;20.902;2024-01-27T02:32:34;100183.53;;;3.81;83.36
84936;BME280;75210;52.210;20.902;2024-01-27T02:33:34;100311.81;;;4.60;83.44
84936;BME280;75210;52.210;20.902;2024-01-27T02:34:35;100196.25;;;3.91;82.74
84936;BME280;75210;52.210;20.902;2024-01-27T02:35:36;100298.19;;;4.49;82.56
84936;BME280;75210;52.210;20.902;2024-01-27T02:36:36;100310.16;;;4.57;83.00
84936;BME280;75210;52.210;20.902;2024-01-27T02:37:36;100314.41;;;4.60;83.39
84936;BME280;75210;52.210;20.902;2024-01-27T02:38:37;100309.16;;;4.61;83.01
84936;BME280;75210;52.210;20.902;2024-01-27T02:39:39;100312.56;;;4.63;82.05
84936;BME280;75210;52.210;20.902;2024-01-27T02:40:39;100292.94;;;4.50;82.73
84936;BME280;75210;52.210;20.902;2024-01-27T02:41:40;100182.44;;;3.88;82.58
84936;BME280;75210;52.210;20.902;2024-01-27T02:42:40;100318.59;;;4.67;82.54
84936;BME280;75210;52.210;20.902;2024-01-27T02:43:41;100309.97;;;4.63;82.57
84936;BME280;75210;52.210;20.902;2024-01-27T02:44:41;100297.22;;;4.53;81.73
84936;BME280;75210;52.210;20.902;2024-01-27T02:45:41;100316.09;;;4.62;82.46
84936;BME280;75210;52.210;20.902;2024-01-27T02:46:42;100307.53;;;4.57;82.50
84936;BME280;75210;52.210;20.902;2024-01-27T02:47:42;100309.97;;;4.63;81.93
84936;BME280;75210;52.210;20.902;2024-01-27T02:48:43;100315.31;;;4.59;81.54
84936;BME280;75210;52.210;20.902;2024-01-27T02:49:43;100325.88;;;4.56;81.56
84936;BME280;75210;52.210;20.902;2024-01-27T02:50:44;100321.50;;;4.56;81.93
84936;BME280;75210;52.210;20.902;2024-01-27T02:51:44;100328.53;;;4.54;82.06
84936;BME280;75210;52.210;20.902;2024-01-27T02:52:44;100279.63;;;4.28;82.07
84936;BME280;75210;52.210;20.902;2024-01-27T02:53:45;100324.91;;;4.58;82.28
84936;BME280;75210;52.210;20.902;2024-01-27T02:54:47;100327.50;;;4.58;81.89
84936;BME280;75210;52.210;20.902;2024-01-27T02:55:47;100333.66;;;4.57;82.20
84936;BME280;75210;52.210;20.902;2024-01-27T02:56:48;100334.56;;;4.56;82.13
84936;BME280;75210;52.210;20.902;2024-01-27T02:57:48;100331.94;;;4.56;82.92
84936;BME280;75210;52.210;20.902;2024-01-27T02:58:48;100331.88;;;4.58;82.81
84936;BME280;75210;52.210;20.902;2024-01-27T02:59:49;100338.81;;;4.59;82.53
84936;BME280;75210;52.210;20.902;2024-01-27T03:00:49;100338.88;;;4.57;81.85
84936;BME280;75210;52.210;20.902;2024-01-27T03:01:50;100341.34;;;4.62;82.14
84936;BME280;75210;52.210;20.902;2024-01-27T03:02:50;100342.28;;;4.59;82.20
84936;BME280;75210;52.210;20.902;2024-01-27T03:03:50;100341.34;;;4.62;82.51
84936;BME280;75210;52.210;20.902;2024-01-27T03:04:51;100332.66;;;4.61;82.60
84936;BME280;75210;52.210;20.902;2024-01-27T03:05:51;100324.16;;;4.55;82.25
84936;BME280;75210;52.210;20.902;2024-01-27T03:06:52;100338.69;;;4.63;81.74
84936;BME280;75210;52.210;20.902;2024-01-27T03:07:52;100341.19;;;4.68;81.93
84936;BME280;75210;52.210;20.902;2024-01-27T03:08:52;100336.06;;;4.65;82.00
84936;BME280;75210;52.210;20.902;2024-01-27T03:09:54;100339.72;;;4.58;82.78
84936;BME280;75210;52.210;20.902;2024-01-27T03:10:55;100174.38;;;3.65;81.80
84936;BME280;75210;52.210;20.902;2024-01-27T03:11:55;100341.31;;;4.63;82.03
84936;BME280;75210;52.210;20.902;2024-01-27T03:12:55;100340.47;;;4.63;82.25
84936;BME280;75210;52.210;20.902;2024-01-27T03:13:56;100239.66;;;3.95;81.24
84936;BME280;75210;52.210;20.902;2024-01-27T03:14:56;100340.75;;;4.52;82.21
84936;BME280;75210;52.210;20.902;2024-01-27T03:15:57;100346.81;;;4.54;82.56
84936;BME280;75210;52.210;20.902;2024-01-27T03:16:58;100303.25;;;4.24;82.54
84936;BME280;75210;52.210;20.902;2024-01-27T03:17:58;100341.88;;;4.44;82.15
84936;BME280;75210;52.210;20.902;2024-01-27T03:18:58;100342.81;;;4.41;82.26
84936;BME280;75210;52.210;20.902;2024-01-27T03:19:59;100355.78;;;4.44;82.61
84936;BME280;75210;52.210;20.902;2024-01-27T03:20:59;100351.44;;;4.45;82.60
84936;BME280;75210;52.210;20.902;2024-01-27T03:22:00;100355.72;;;4.46;81.91
84936;BME280;75210;52.210;20.902;2024-01-27T03:23:00;100351.34;;;4.46;82.17
84936;BME280;75210;52.210;20.902;2024-01-27T03:24:00;100346.13;;;4.46;81.83
84936;BME280;75210;52.210;20.902;2024-01-27T03:25:03;100271.72;;;3.99;82.06
84936;BME280;75210;52.210;20.902;2024-01-27T03:26:04;100352.22;;;4.47;82.33
84936;BME280;75210;52.210;20.902;2024-01-27T03:27:04;100194.94;;;3.44;82.61
84936;BME280;75210;52.210;20.902;2024-01-27T03:28:05;100361.06;;;4.43;81.74
84936;BME280;75210;52.210;20.902;2024-01-27T03:29:05;100330.81;;;4.34;81.67
84936;BME280;75210;52.210;20.902;2024-01-27T03:30:06;100349.56;;;4.48;81.36
84936;BME280;75210;52.210;20.902;2024-01-27T03:31:07;100355.66;;;4.49;81.49
84936;BME280;75210;52.210;20.902;2024-01-27T03:32:07;100352.22;;;4.47;80.85
84936;BME280;75210;52.210;20.902;2024-01-27T03:33:08;100349.59;;;4.47;81.30
84936;BME280;75210;52.210;20.902;2024-01-27T03:34:08;100350.56;;;4.44;80.92
84936;BME280;75210;52.210;20.902;2024-01-27T03:35:09;100324.78;;;4.32;81.08
84936;BME280;75210;52.210;20.902;2024-01-27T03:36:09;100332.47;;;4.37;81.02
84936;BME280;75210;52.210;20.902;2024-01-27T03:37:10;100353.94;;;4.48;81.03
84936;BME280;75210;52.210;20.902;2024-01-27T03:38:11;100348.59;;;4.52;80.92
84936;BME280;75210;52.210;20.902;2024-01-27T03:39:11;100273.25;;;4.08;80.77
84936;BME280;75210;52.210;20.902;2024-01-27T03:40:14;100355.59;;;4.50;80.36
84936;BME280;75210;52.210;20.902;2024-01-27T03:41:15;100354.78;;;4.48;80.06
84936;BME280;75210;52.210;20.902;2024-01-27T03:42:15;100355.66;;;4.49;81.00
84936;BME280;75210;52.210;20.902;2024-01-27T03:43:16;100359.25;;;4.45;80.96
84936;BME280;75210;52.210;20.902;2024-01-27T03:44:16;100361.00;;;4.44;80.82
84936;BME280;75210;52.210;20.902;2024-01-27T03:45:17;100313.97;;;4.13;81.08
84936;BME280;75210;52.210;20.902;2024-01-27T03:46:17;100360.19;;;4.42;81.24
84936;BME280;75210;52.210;20.902;2024-01-27T03:47:18;100357.44;;;4.47;80.73
84936;BME280;75210;52.210;20.902;2024-01-27T03:48:18;100357.25;;;4.54;80.38
84936;BME280;75210;52.210;20.902;2024-01-27T03:49:18;100365.84;;;4.58;80.37
84936;BME280;75210;52.210;20.902;2024-01-27T03:50:19;100367.47;;;4.62;80.04
84936;BME280;75210;52.210;20.902;2024-01-27T03:51:19;100362.44;;;4.56;79.44
84936;BME280;75210;52.210;20.902;2024-01-27T03:52:20;100284.50;;;4.08;79.93
84936;BME280;75210;52.210;20.902;2024-01-27T03:53:20;100357.41;;;4.48;79.73
84936;BME280;75210;52.210;20.902;2024-01-27T03:54:20;100353.91;;;4.49;80.13
84936;BME280;75210;52.210;20.902;2024-01-27T03:55:23;100367.84;;;4.48;80.16
84936;BME280;75210;52.210;20.902;2024-01-27T03:56:23;100363.44;;;4.50;80.52
84936;BME280;75210;52.210;20.902;2024-01-27T03:57:24;100373.91;;;4.50;81.58
84936;BME280;75210;52.210;20.902;2024-01-27T03:58:24;100369.41;;;4.55;81.22
84936;BME280;75210;52.210;20.902;2024-01-27T03:59:24;100363.34;;;4.55;80.91
84936;BME280;75210;52.210;20.902;2024-01-27T04:00:25;100364.16;;;4.57;80.87
84936;BME280;75210;52.210;20.902;2024-01-27T04:01:25;100384.13;;;4.58;81.14
84936;BME280;75210;52.210;20.902;2024-01-27T04:02:26;100368.56;;;4.55;81.29
84936;BME280;75210;52.210;20.902;2024-01-27T04:03:26;100380.78;;;4.53;81.22
84936;BME280;75210;52.210;20.902;2024-01-27T04:04:26;100389.59;;;4.49;81.30
84936;BME280;75210;52.210;20.902;2024-01-27T04:05:28;100263.59;;;3.77;81.20
84936;BME280;75210;52.210;20.902;2024-01-27T04:06:29;100375.75;;;4.45;80.80
84936;BME280;75210;52.210;20.902;2024-01-27T04:07:29;100292.84;;;3.90;80.91
84936;BME280;75210;52.210;20.902;2024-01-27T04:08:30;100356.88;;;4.36;81.58
84936;BME280;75210;52.210;20.902;2024-01-27T04:09:30;100380.16;;;4.45;80.80
84936;BME280;75210;52.210;20.902;2024-01-27T04:10:32;100323.72;;;4.07;81.03
84936;BME280;75210;52.210;20.902;2024-01-27T04:11:32;100290.31;;;3.87;81.55
84936;BME280;75210;52.210;20.902;2024-01-27T04:12:33;100391.44;;;4.45;81.30
84936;BME280;75210;52.210;20.902;2024-01-27T04:13:33;100374.94;;;4.45;81.72
84936;BME280;75210;52.210;20.902;2024-01-27T04:14:33;100373.03;;;4.50;81.57
84936;BME280;75210;52.210;20.902;2024-01-27T04:15:34;100374.94;;;4.45;80.37
84936;BME280;75210;52.210;20.902;2024-01-27T04:16:34;100366.25;;;4.44;80.73
84936;BME280;75210;52.210;20.902;2024-01-27T04:17:35;100378.38;;;4.45;80.54
84936;BME280;75210;52.210;20.902;2024-01-27T04:18:35;100376.47;;;4.52;80.34
84936;BME280;75210;52.210;20.902;2024-01-27T04:19:35;100365.91;;;4.56;81.04
84936;BME280;75210;52.210;20.902;2024-01-27T04:20:36;100377.25;;;4.55;79.36
84936;BME280;75210;52.210;20.902;2024-01-27T04:21:36;100376.41;;;4.55;80.06
84936;BME280;75210;52.210;20.902;2024-01-27T04:22:37;100377.25;;;4.55;79.92
84936;BME280;75210;52.210;20.902;2024-01-27T04:23:37;100381.50;;;4.58;80.59
84936;BME280;75210;52.210;20.902;2024-01-27T04:24:37;100383.34;;;4.56;79.29
84936;BME280;75210;52.210;20.902;2024-01-27T04:25:39;100391.88;;;4.61;79.51
84936;BME280;75210;52.210;20.902;2024-01-27T04:26:39;100386.69;;;4.59;79.66
84936;BME280;75210;52.210;20.902;2024-01-27T04:27:41;100338.72;;;4.32;79.68
84936;BME280;75210;52.210;20.902;2024-01-27T04:28:41;100370.41;;;4.50;79.58
84936;BME280;75210;52.210;20.902;2024-01-27T04:29:42;100360.88;;;4.49;80.07
84936;BME280;75210;52.210;20.902;2024-01-27T04:30:42;100383.41;;;4.53;80.57
84936;BME280;75210;52.210;20.902;2024-01-27T04:31:42;100394.69;;;4.55;79.92
84936;BME280;75210;52.210;20.902;2024-01-27T04:32:43;100385.97;;;4.54;80.28
84936;BME280;75210;52.210;20.902;2024-01-27T04:33:43;100387.59;;;4.58;79.67
84936;BME280;75210;52.210;20.902;2024-01-27T04:34:44;100383.16;;;4.62;79.74
84936;BME280;75210;52.210;20.902;2024-01-27T04:35:44;100397.09;;;4.61;79.50
84936;BME280;75210;52.210;20.902;2024-01-27T04:36:44;100290.84;;;4.00;80.27
84936;BME280;75210;52.210;20.902;2024-01-27T04:37:45;100384.81;;;4.64;79.76
84936;BME280;75210;52.210;20.902;2024-01-27T04:38:45;100394.38;;;4.65;79.08
84936;BME280;75210;52.210;20.902;2024-01-27T04:39:45;100394.31;;;4.68;79.59
84936;BME280;75210;52.210;20.902;2024-01-27T04:40:49;100385.56;;;4.69;79.86
84936;BME280;75210;52.210;20.902;2024-01-27T04:41:49;100323.19;;;4.26;78.81
84936;BME280;75210;52.210;20.902;2024-01-27T04:42:50;100392.69;;;4.63;79.33
84936;BME280;75210;52.210;20.902;2024-01-27T04:43:50;100380.00;;;4.49;79.62
84936;BME280;75210;52.210;20.902;2024-01-27T04:44:50;100310.75;;;4.04;79.64
84936;BME280;75210;52.210;20.902;2024-01-27T04:45:51;100399.91;;;4.55;80.66
84936;BME280;75210;52.210;20.902;2024-01-27T04:46:51;100405.16;;;4.53;80.25
84936;BME280;75210;52.210;20.902;2024-01-27T04:47:52;100399.16;;;4.50;80.50
84936;BME280;75210;52.210;20.902;2024-01-27T04:48:52;100404.31;;;4.53;80.40
84936;BME280;75210;52.210;20.902;2024-01-27T04:49:53;100373.63;;;4.28;79.96
84936;BME280;75210;52.210;20.902;2024-01-27T04:50:54;100403.66;;;4.45;80.79
84936;BME280;75210;52.210;20.902;2024-01-27T04:51:54;100390.13;;;4.29;80.39
84936;BME280;75210;52.210;20.902;2024-01-27T04:52:54;100306.16;;;3.79;80.96
84936;BME280;75210;52.210;20.902;2024-01-27T04:53:55;100422.16;;;4.36;80.41
84936;BME280;75210;52.210;20.902;2024-01-27T04:54:55;100333.97;;;3.80;81.06
84936;BME280;75210;52.210;20.902;2024-01-27T04:55:57;100414.34;;;4.34;81.09
84936;BME280;75210;52.210;20.902;2024-01-27T04:56:57;100416.09;;;4.33;80.87
84936;BME280;75210;52.210;20.902;2024-01-27T04:57:58;100421.44;;;4.30;81.12
84936;BME280;75210;52.210;20.902;2024-01-27T04:58:58;100315.19;;;3.66;81.63
84936;BME280;75210;52.210;20.902;2024-01-27T04:59:59;100280.06;;;3.45;81.55
84936;BME280;75210;52.210;20.902;2024-01-27T05:00:59;100410.31;;;4.22;81.81
84936;BME280;75210;52.210;20.902;2024-01-27T05:02:00;100264.81;;;3.29;81.73
84936;BME280;75210;52.210;20.902;2024-01-27T05:03:00;100420.78;;;4.21;82.90
84936;BME280;75210;52.210;20.902;2024-01-27T05:04:00;100412.94;;;4.21;82.75
84936;BME280;75210;52.210;20.902;2024-01-27T05:05:01;100417.47;;;4.14;82.59
84936;BME280;75210;52.210;20.902;2024-01-27T05:06:02;100339.38;;;3.71;82.54
84936;BME280;75210;52.210;20.902;2024-01-27T05:07:02;100421.78;;;4.17;82.27
84936;BME280;75210;52.210;20.902;2024-01-27T05:08:03;100418.28;;;4.18;82.27
84936;BME280;75210;52.210;20.902;2024-01-27T05:09:04;100419.16;;;4.17;82.16
84936;BME280;75210;52.210;20.902;2024-01-27T05:10:05;100418.31;;;4.16;81.96
84936;BME280;75210;52.210;20.902;2024-01-27T05:11:08;100390.72;;;4.06;82.04
84936;BME280;75210;52.210;20.902;2024-01-27T05:12:08;100406.16;;;4.15;82.55
84936;BME280;75210;52.210;20.902;2024-01-27T05:13:09;100415.63;;;4.19;81.95
84936;BME280;75210;52.210;20.902;2024-01-27T05:14:09;100413.81;;;4.21;82.43
84936;BME280;75210;52.210;20.902;2024-01-27T05:15:10;100409.44;;;4.22;82.20
84936;BME280;75210;52.210;20.902;2024-01-27T05:16:10;100344.38;;;3.82;81.63
84936;BME280;75210;52.210;20.902;2024-01-27T05:17:11;100307.50;;;3.60;81.46